createdAt,value
2022-08-18T04:00:25.809Z,20.20
2022-08-18T04:05:25.757Z,30.20
2022-08-18T04:10:25.704Z,32.10
2022-08-18T04:15:32.750Z,33.80
2022-08-18T04:20:32.628Z,33.30
2022-08-18T04:25:29.512Z,34.50
2022-08-18T04:30:26.480Z,34.10
2022-08-18T04:35:25.433Z,34.70
2022-08-18T04:40:25.619Z,35.20
2022-08-18T04:45:25.321Z,34.60
2022-08-18T04:50:25.273Z,35.40
2022-08-18T04:55:25.205Z,34.90
2022-08-18T05:00:25.155Z,34.80
2022-08-18T05:05:25.108Z,32.90
2022-08-18T05:10:25.057Z,34.80
2022-08-18T05:15:25.004Z,34.60
2022-08-18T05:20:24.940Z,34.60
2022-08-18T05:25:24.888Z,36.90
2022-08-18T05:30:24.837Z,35.40
2022-08-18T05:35:24.783Z,34.80
2022-08-18T05:40:24.754Z,34.40
2022-08-18T05:45:24.672Z,36.00
2022-08-18T05:50:24.620Z,37.00
2022-08-18T05:55:24.563Z,36.10
2022-08-18T06:00:24.516Z,36.40
2022-08-18T06:05:24.451Z,35.80
2022-08-18T06:10:24.390Z,35.10
2022-08-18T06:15:24.347Z,35.00
2022-08-18T06:20:24.287Z,34.70
2022-08-18T06:25:24.234Z,33.40
2022-08-18T06:30:24.187Z,34.80
2022-08-18T06:35:24.130Z,34.10
2022-08-18T06:40:24.073Z,33.40
2022-08-18T06:45:24.019Z,32.30
2022-08-18T06:50:24.966Z,32.80
2022-08-18T06:55:23.908Z,32.80
2022-08-18T07:00:23.878Z,32.00
2022-08-18T07:05:23.802Z,31.50
2022-08-18T07:10:23.746Z,31.80
2022-08-18T07:15:23.691Z,30.40
2022-08-18T07:20:23.791Z,32.10
2022-08-18T07:25:23.584Z,30.30
2022-08-18T07:30:23.605Z,31.60
2022-08-18T07:35:23.482Z,31.70
2022-08-18T07:40:23.514Z,31.50
2022-08-18T07:45:23.992Z,30.00
2022-08-18T07:50:55.155Z,30.90
2022-08-18T07:55:24.247Z,29.20
2022-08-18T08:00:35.435Z,29.60
2022-08-18T08:05:24.136Z,29.00
2022-08-18T08:10:23.081Z,28.80
2022-08-18T08:15:27.189Z,27.60
2022-08-18T08:20:22.974Z,26.70
2022-08-18T08:25:45.279Z,27.50
2022-08-18T08:30:23.873Z,25.70
2022-08-18T08:35:50.159Z,26.10
2022-08-18T08:40:23.829Z,25.50
2022-08-18T08:45:22.698Z,25.10
2022-08-18T08:50:22.644Z,24.80
2022-08-18T08:55:22.587Z,24.30
2022-08-18T09:00:22.550Z,24.40
2022-08-18T09:05:22.478Z,26.30
2022-08-18T09:10:22.421Z,23.70
2022-08-18T09:15:22.379Z,24.60
2022-08-18T09:20:22.350Z,22.90
2022-08-18T09:25:22.247Z,23.50
2022-08-18T09:30:22.198Z,22.50
2022-08-18T09:35:23.069Z,22.40
2022-08-18T09:40:38.644Z,20.40
2022-08-18T09:45:23.042Z,19.80
2022-08-18T09:50:27.255Z,19.40
2022-08-18T09:55:22.938Z,19.50
2022-08-18T10:00:24.228Z,18.10
2022-08-18T10:05:22.415Z,18.60
2022-08-18T10:10:59.339Z,16.90
2022-08-18T10:15:33.082Z,16.40
2022-08-18T10:21:33.518Z,17.10
2022-08-18T10:26:33.162Z,17.40
2022-08-18T10:31:33.109Z,16.30
2022-08-18T10:36:33.061Z,17.60
2022-08-18T10:41:33.002Z,16.70
2022-08-18T10:46:35.006Z,17.00
2022-08-18T10:51:58.040Z,17.20
2022-08-18T10:56:33.848Z,16.70
2022-08-18T11:01:33.011Z,15.80
2022-08-18T11:06:32.749Z,16.20
2022-08-18T11:11:37.235Z,15.80
2022-08-18T11:16:33.635Z,15.70
2022-08-18T11:21:32.582Z,14.50
2022-08-18T11:26:32.525Z,15.00
2022-08-18T11:31:32.464Z,14.10
2022-08-18T11:36:32.418Z,13.50
2022-08-18T11:46:33.327Z,14.50
2022-08-18T11:51:32.653Z,14.00
2022-08-18T12:01:40.887Z,14.40
2022-08-18T12:06:33.100Z,14.10
2022-08-18T12:11:32.041Z,13.90
2022-08-18T12:16:31.994Z,14.60
2022-08-18T12:21:31.941Z,13.00
2022-08-18T12:26:38.982Z,14.30
2022-08-18T12:31:47.570Z,15.30
2022-08-18T12:36:32.776Z,13.90
2022-08-18T12:41:31.724Z,14.90
2022-08-18T12:46:31.671Z,13.60
2022-08-18T12:51:31.621Z,12.90
2022-08-18T12:56:31.572Z,12.70
2022-08-18T13:01:31.649Z,12.90
2022-08-18T13:06:31.458Z,13.20
2022-08-18T13:11:31.404Z,12.00
2022-08-18T13:16:54.165Z,12.10
2022-08-18T13:21:40.895Z,12.60
2022-08-18T13:26:32.230Z,11.70
2022-08-18T13:31:32.781Z,10.80
2022-08-18T13:36:31.144Z,11.70
2022-08-18T13:41:31.088Z,11.40
2022-08-18T13:46:31.475Z,13.40
2022-08-18T13:51:30.984Z,11.80
2022-08-18T13:56:31.638Z,12.40
2022-08-18T14:01:45.101Z,13.80
2022-08-18T14:06:31.809Z,13.40
2022-08-18T14:11:32.806Z,12.60
2022-08-18T14:16:30.813Z,13.40
2022-08-18T14:21:30.644Z,13.60
2022-08-18T14:26:30.591Z,13.70
2022-08-18T14:31:30.533Z,13.70
2022-08-18T14:36:30.593Z,13.40
2022-08-18T14:41:30.696Z,13.30
2022-08-18T14:46:32.694Z,13.80
2022-08-18T14:51:30.299Z,14.30
2022-08-18T14:56:33.398Z,13.80
2022-08-18T15:01:34.902Z,13.50
2022-08-18T15:06:30.129Z,12.10
2022-08-18T15:11:31.901Z,14.50
2022-08-18T15:16:32.260Z,14.90
2022-08-18T15:21:38.526Z,13.10
2022-08-18T15:26:29.911Z,14.10
2022-08-18T15:36:30.939Z,13.40
2022-08-18T15:41:29.763Z,12.90
2022-08-18T15:46:29.710Z,11.50
2022-08-18T15:51:35.351Z,11.00
2022-08-18T15:56:30.602Z,9.80
2022-08-18T16:01:30.423Z,9.70
2022-08-18T16:06:32.288Z,10.20
2022-08-18T16:11:30.020Z,9.70
2022-08-18T16:16:35.683Z,9.90
2022-08-18T16:21:30.350Z,8.70
2022-08-18T16:26:29.294Z,8.20
2022-08-18T16:31:29.255Z,7.90
2022-08-18T16:36:29.184Z,8.10
2022-08-18T16:41:29.130Z,7.90
2022-08-18T16:46:29.078Z,7.20
2022-08-18T16:51:29.029Z,7.80
2022-08-18T16:56:28.967Z,6.60
2022-08-18T17:01:33.703Z,5.90
2022-08-18T17:06:29.885Z,6.00
2022-08-18T17:11:28.834Z,5.50
2022-08-18T17:16:28.751Z,5.30
2022-08-18T17:21:28.731Z,5.60
2022-08-18T17:26:28.647Z,5.40
2022-08-18T17:31:28.596Z,5.80
2022-08-18T17:36:28.537Z,5.90
2022-08-18T17:41:28.503Z,5.50
2022-08-18T17:46:28.422Z,5.70
2022-08-18T17:51:28.377Z,5.20
2022-08-18T17:56:35.136Z,5.70
2022-08-18T18:01:28.286Z,5.80
2022-08-18T18:06:28.217Z,5.40
2022-08-18T18:11:28.162Z,5.50
2022-08-18T18:16:28.108Z,5.30
2022-08-18T18:21:55.358Z,5.60
2022-08-18T18:26:29.008Z,5.70
2022-08-18T18:31:28.012Z,5.70
2022-08-18T18:36:27.892Z,5.70
2022-08-18T18:41:27.852Z,5.70
2022-08-18T18:46:27.770Z,5.50
2022-08-18T18:51:33.704Z,6.00
2022-08-18T18:56:28.677Z,6.60
2022-08-18T19:01:27.622Z,6.20
2022-08-18T19:06:27.566Z,5.80
2022-08-18T19:11:27.539Z,6.00
2022-08-18T19:16:27.458Z,5.90
2022-08-18T19:22:04.135Z,6.40
2022-08-18T19:26:28.358Z,6.50
2022-08-18T19:31:27.352Z,5.70
2022-08-18T19:36:27.241Z,5.80
2022-08-18T19:41:30.777Z,6.10
2022-08-18T19:46:27.116Z,6.50
2022-08-18T19:51:27.072Z,6.00
2022-08-18T19:56:27.020Z,6.00
2022-08-18T20:01:26.990Z,6.10
2022-08-18T20:06:34.662Z,6.10
2022-08-18T20:11:41.722Z,6.00
2022-08-18T20:16:34.556Z,6.10
2022-08-18T20:21:27.741Z,6.40
2022-08-18T20:26:26.709Z,6.00
2022-08-18T20:31:26.629Z,5.80
2022-08-18T20:36:26.573Z,5.50
2022-08-18T20:41:26.525Z,5.40
2022-08-18T20:46:26.496Z,4.50
2022-08-18T20:51:26.398Z,4.60
2022-08-18T20:56:32.055Z,4.80
2022-08-18T21:01:27.398Z,4.80
2022-08-18T21:06:26.246Z,5.20
2022-08-18T21:11:31.852Z,4.90
2022-08-18T21:16:37.720Z,4.90
2022-08-18T21:21:27.442Z,5.30
2022-08-18T21:26:26.026Z,4.80
2022-08-18T21:31:42.880Z,4.90
2022-08-18T21:36:26.913Z,5.40
2022-08-18T21:41:25.863Z,5.50
2022-08-18T21:46:25.808Z,5.50
2022-08-18T21:51:25.742Z,5.20
2022-08-18T21:56:25.694Z,5.40
2022-08-18T22:01:25.721Z,5.90
2022-08-18T22:06:25.580Z,5.70
2022-08-18T22:11:59.713Z,5.40
2022-08-18T22:16:26.469Z,5.40
2022-08-18T22:21:32.650Z,5.10
2022-08-18T22:26:25.357Z,5.60
2022-08-18T22:31:25.304Z,5.50
2022-08-18T22:36:25.261Z,5.00
2022-08-18T22:41:25.182Z,5.60
2022-08-18T22:46:25.251Z,5.50
2022-08-18T22:51:25.092Z,5.30
2022-08-18T22:56:34.467Z,5.20
2022-08-18T23:01:24.971Z,5.10
2022-08-18T23:06:24.925Z,4.50
2022-08-18T23:11:24.861Z,5.30
2022-08-18T23:16:31.128Z,5.20
2022-08-18T23:21:35.455Z,5.30
2022-08-18T23:26:25.700Z,5.80
